CA-0522 weather

Calgary (Aerial Recon) Heliport
Alberta, Canada

Public forecast

Using degrees Celsius for public forecast. Weather courtesy of forecast.io.

Closest aviation weather report (METAR) to Calgary (Aerial Recon) Heliport

Closest report is Calgary International Airport, 15.4 nm (28.6 km) NNE. Retrieved 2019/12/08 02:32 UTC (13 minutes ago):

CYYC 080232Z 05007KT 9SM FEW010 BKN042 M08/M11 A2981 RMK CF1SC7 CF TR SLP160

Closest aviation forecast (TAF) to Calgary (Aerial Recon) Heliport

Closest forecast is Calgary International Airport, 15.4 nm (28.6 km) NNE. Retrieved 2019-12-08 03:48 UTC (0 seconds ago):

TAF CYYC 080241Z 0803/0824 04008KT 6SM -SN BR FEW008 SCT012 BKN040 OVC080 TEMPO 0803/0806 2SM -SN BR BKN008 OVC012 FM080600 04006KT 3SM -SN SCT006 OVC025 TEMPO 0806/0812 1SM -SN OVC006 FM081200 VRB03KT P6SM SCT006 OVC040 TEMPO 0812/0815 4SM -SN BKN006 OVC040 FM081500 22006KT P6SM FEW010 SCT060 TEMPO 0815/0817 4SM BR FM081900 24008KT P6SM FEW060 SCT220 BECMG 0822/0824 30010KT RMK NXT FCST BY 080600Z